Azalea, OR

1:54 AM PDT on October 23, 2014 (GMT -0700)
wolf creek | Change Station
CLOSE
Current Station
Personal Weather Station
Location: Wolf Creek, OR
Elevation: 1503 ft
Nearby Weather Stations

Elev 1503 ft 42.71 °N, 123.37 °W | Updated 2 seconds ago

Rain
Rain
56.1 °F
Feels Like 56.1 °F
N
4.7
Wind Variable Wind from East
Gusts 6.3 mph

Today
High -- | Low -- °F
--% Chance of Precip.
Yesterday
High -- | Low -- °F
Precip. -- in
7:35 AM 6:17 PM
Waning Crescent, 0% visible
Pressure 29.83 in
Visibility 5.0 miles
Clouds Few 2900 ft
Overcast 3700 ft
Dew Point 55 °F
Humidity 96%
Rainfall 0.19 in
Snow Depth Not available.
UV 0 out of 12
Pollen 2.70 out of 12
Air Quality Not available.
Flu Activity Sporadic
SPECI KRBG 230839Z AUTO 14003KT 5SM -RA BR FEW029 OVC037 15/13 A2983 RMK AO2 P0004 T01500133

More Conditions Fewer Conditions

Pressure 29.83 in
Visibility 5.0 miles
Clouds Few 2900 ft
Overcast 3700 ft
Dew Point 55 °F
Humidity 96%
Rainfall 0.19 in
Snow Depth Not available.
UV 0 out of 12
Pollen 2.70 out of 12
Air Quality Not available.
Flu Activity Sporadic
SPECI KRBG 230839Z AUTO 14003KT 5SM -RA BR FEW029 OVC037 15/13 A2983 RMK AO2 P0004 T01500133

More Conditions Fewer Conditions

10-Day Weather Forecast

Almanac

Astronomy

Oct. 23, 2014 Rise Set
Actual Time 7:35 AM PDT 6:17 PM PDT
Civil Twilight 7:07 AM PDT 6:46 PM PDT
Nautical Twilight 6:34 AM PDT 7:19 PM PDT
Astronomical Twilight 6:01 AM PDT 7:52 PM PDT
Moon 7:20 AM PDT 6:22 PM PDT
Length of Visible Light 11h 39m
Length of Day
10h 41m
Tomorrow will be 2m 42s shorter.
Waning Crescent, 0% of the Moon is Illuminated
Today
Waning Crescent
Oct 23
New
Oct 30
First Quarter
Nov 6
Full
Nov 14
Last Quarter

Today's Extremes

State Highs State Lows

Community

WunderPhotos

Upload Photos

1,764,197 photos uploaded!

Nearby

Snow Depth

Station Depth Elevation
Fish Lake 0 in 4665 ft
Annie Springs 0 in 6020 ft
Billie Creek Divide 0 in 5300 ft
Big Red Mountain 0 in 6250 ft
Sevenmile Marsh 0 in 6200 ft

Earthquake Activity

City Distance Mag. Time & Date
Crescent City, California 118 miles 2.6 1:22 AM PDT
2014-10-21
Minimum magnitude displayed is 2.5.

Coastal Water Temperatures

Place Temperature
No Stations Reporting

Nearby Weather Stations